Daikoku — JD3247 — position and weather

sailwx.info

Track history (hours):
 
Tides and Currents Weather Stations Pressure Air Temp Water Temp Dewpoint Dewpoint Depression Visibility Wind Speed Wind Dir Waves Ship Positions

Daikoku

Last reported at 2014-Oct-01 14:13 UTC. Time now 2014-Oct-02 14:36 UTC.
Position N 35°05' E 139°40'.

Length 95 m; draft 4 m.

Type: Cargo ship. MMSI: 431003009.

Date/timePositionNaut miles runAvg speedWind from/ knotsBaromVisibWave heightAir tempDewpointWater temp
2014-Oct-01 14:13N 35°05' E 139°40'811.9
2014-Oct-01 13:33N 35°11' E 139°46'1212.3
2014-Oct-01 12:34N 35°23' E 139°42'3 3.1
2014-Oct-01 11:31N 35°26' E 139°41'0 0.2
2014-Oct-01 10:33N 35°26' E 139°41'1 0.9
2014-Oct-01 09:33N 35°27' E 139°42'2 1.6
2014-Oct-01 08:33N 35°26' E 139°44'2 2.1
2014-Oct-01 07:33N 35°27' E 139°41'6 6.4
2014-Oct-01 06:33N 35°28' E 139°49'5 1.7
2014-Oct-01 03:25N 35°34' E 139°50'5 6.3
2014-Oct-01 02:33N 35°29' E 139°46'0 0.2
2014-Oct-01 01:15N 35°29' E 139°45'4 5.9
2014-Oct-01 00:34N 35°25' E 139°46'1111.2
2014-Sep-30 23:34N 35°14' E 139°47'242 6.3
2014-Sep-29 09:28N 34°22' E 134°60'1314.7
2014-Sep-29 08:33N 34°31' E 135°12'1010.5
2014-Sep-29 07:34N 34°41' E 135°16'0 0.1
2014-Sep-29 06:34N 34°41' E 135°15'2 1.8
2014-Sep-29 05:32N 34°40' E 135°14'0 0.0
2014-Sep-29 04:29N 34°40' E 135°14'0 0.1
2014-Sep-29 03:28N 34°40' E 135°14'3 3.0
2014-Sep-29 02:33N 34°41' E 135°17'1 0.5
2014-Sep-29 01:33N 34°41' E 135°16'2 1.9
2014-Sep-29 00:32N 34°39' E 135°15'1 0.9
2014-Sep-28 23:33N 34°40' E 135°14'3 2.6
2014-Sep-28 22:28N 34°37' E 135°14'0 0.1
2014-Sep-28 21:33N 34°37' E 135°14'1413.6
2014-Sep-28 20:34N 34°36' E 134°58'  
2014-Sep-26 10:29N 34°37' E 134°57'1212.4
2014-Sep-26 09:33N 34°36' E 135°11'4 3.7
2014-Sep-26 08:30N 34°40' E 135°14'0 0.0
2014-Sep-26 07:29N 34°40' E 135°14'0 0.0
2014-Sep-26 06:30N 34°40' E 135°14'0 0.0
2014-Sep-26 05:33N 34°40' E 135°14'3 2.7
2014-Sep-26 04:33N 34°41' E 135°17'0 0.1
2014-Sep-26 03:32N 34°41' E 135°17'0 0.3
2014-Sep-26 02:33N 34°41' E 135°16'3 2.5
2014-Sep-26 01:20N 34°39' E 135°19'0 0.0
2014-Sep-26 00:32N 34°39' E 135°19'5 4.3
2014-Sep-25 23:23N 34°38' E 135°25'2 2.6
2014-Sep-25 22:33N 34°37' E 135°22'4 1.2
2014-Sep-25 19:31N 34°36' E 135°18'0 0.0
2014-Sep-25 18:31N 34°36' E 135°18'0 0.0
2014-Sep-25 17:18N 34°36' E 135°18'710.0
2014-Sep-25 16:33N 34°35' E 135°09'1313.0
2014-Sep-25 15:33N 34°35' E 134°54'12710.4
2014-Sep-25 03:20N 34°09' E 132°22'1012.5
2014-Sep-25 02:34N 34°19' E 132°25'3 2.8
2014-Sep-25 01:32N 34°21' E 132°26'0 0.0
2014-Sep-25 00:23N 34°21' E 132°26'0 0.0
2014-Sep-24 23:32N 34°21' E 132°26'4 3.7
2014-Sep-24 22:28N 34°19' E 132°22'0 0.0
2014-Sep-24 21:31N 34°19' E 132°22'0 0.0
2014-Sep-24 20:28N 34°19' E 132°22'0 0.0
2014-Sep-24 19:31N 34°19' E 132°22'5 5.5
2014-Sep-24 18:33N 34°14' E 132°21'19 9.4
2014-Sep-24 16:32N 34°06' E 132°41'117 9.6
2014-Sep-24 04:21N 34°37' E 134°57'911.2
2014-Sep-24 03:33N 34°36' E 135°08'6 5.9
2014-Sep-24 02:31N 34°40' E 135°14'3 3.3
2014-Sep-24 01:32N 34°41' E 135°17'2 1.9
2014-Sep-24 00:33N 34°40' E 135°15'1 0.9
2014-Sep-23 23:24N 34°39' E 135°15'1 0.8
2014-Sep-23 22:33N 34°40' E 135°14'0 0.0
2014-Sep-23 21:33N 34°40' E 135°14'2 2.4
2014-Sep-23 20:33N 34°38' E 135°16'2 1.6
2014-Sep-23 19:28N 34°37' E 135°15'0 0.0
2014-Sep-23 18:34N 34°37' E 135°15'1110.8
2014-Sep-23 17:33N 34°37' E 135°02'223 6.0
2014-Sep-22 04:33N 32°07' E 131°44'  
Track history (hours):
 
Tides and Currents Weather Stations Pressure Air Temp Water Temp Dewpoint Dewpoint Depression Visibility Wind Speed Wind Dir Waves Ship Positions

Daikoku

Last reported at 2014-Oct-01 14:13 UTC. Time now 2014-Oct-02 14:36 UTC.
Position N 35°05' E 139°40'.

Length 95 m; draft 4 m.

Type: Cargo ship. MMSI: 431003009.

Date/timePositionNaut miles runAvg speedWind from/ knotsBaromVisibWave heightAir tempDewpointWater temp
2014-Oct-01 14:13N 35°05' E 139°40'811.9
2014-Oct-01 13:33N 35°11' E 139°46'1212.3
2014-Oct-01 12:34N 35°23' E 139°42'3 3.1
2014-Oct-01 11:31N 35°26' E 139°41'0 0.2
2014-Oct-01 10:33N 35°26' E 139°41'1 0.9
2014-Oct-01 09:33N 35°27' E 139°42'2 1.6
2014-Oct-01 08:33N 35°26' E 139°44'2 2.1
2014-Oct-01 07:33N 35°27' E 139°41'6 6.4
2014-Oct-01 06:33N 35°28' E 139°49'5 1.7
2014-Oct-01 03:25N 35°34' E 139°50'5 6.3
2014-Oct-01 02:33N 35°29' E 139°46'0 0.2
2014-Oct-01 01:15N 35°29' E 139°45'4 5.9
2014-Oct-01 00:34N 35°25' E 139°46'1111.2
2014-Sep-30 23:34N 35°14' E 139°47'242 6.3
2014-Sep-29 09:28N 34°22' E 134°60'1314.7
2014-Sep-29 08:33N 34°31' E 135°12'1010.5
2014-Sep-29 07:34N 34°41' E 135°16'0 0.1
2014-Sep-29 06:34N 34°41' E 135°15'2 1.8
2014-Sep-29 05:32N 34°40' E 135°14'0 0.0
2014-Sep-29 04:29N 34°40' E 135°14'0 0.1
2014-Sep-29 03:28N 34°40' E 135°14'3 3.0
2014-Sep-29 02:33N 34°41' E 135°17'1 0.5
2014-Sep-29 01:33N 34°41' E 135°16'2 1.9
2014-Sep-29 00:32N 34°39' E 135°15'1 0.9
2014-Sep-28 23:33N 34°40' E 135°14'3 2.6
2014-Sep-28 22:28N 34°37' E 135°14'0 0.1
2014-Sep-28 21:33N 34°37' E 135°14'1413.6
2014-Sep-28 20:34N 34°36' E 134°58'  
2014-Sep-26 10:29N 34°37' E 134°57'1212.4
2014-Sep-26 09:33N 34°36' E 135°11'4 3.7
2014-Sep-26 08:30N 34°40' E 135°14'0 0.0
2014-Sep-26 07:29N 34°40' E 135°14'0 0.0
2014-Sep-26 06:30N 34°40' E 135°14'0 0.0
2014-Sep-26 05:33N 34°40' E 135°14'3 2.7
2014-Sep-26 04:33N 34°41' E 135°17'0 0.1
2014-Sep-26 03:32N 34°41' E 135°17'0 0.3
2014-Sep-26 02:33N 34°41' E 135°16'3 2.5
2014-Sep-26 01:20N 34°39' E 135°19'0 0.0
2014-Sep-26 00:32N 34°39' E 135°19'5 4.3
2014-Sep-25 23:23N 34°38' E 135°25'2 2.6
2014-Sep-25 22:33N 34°37' E 135°22'4 1.2
2014-Sep-25 19:31N 34°36' E 135°18'0 0.0
2014-Sep-25 18:31N 34°36' E 135°18'0 0.0
2014-Sep-25 17:18N 34°36' E 135°18'710.0
2014-Sep-25 16:33N 34°35' E 135°09'1313.0
2014-Sep-25 15:33N 34°35' E 134°54'12710.4
2014-Sep-25 03:20N 34°09' E 132°22'1012.5
2014-Sep-25 02:34N 34°19' E 132°25'3 2.8
2014-Sep-25 01:32N 34°21' E 132°26'0 0.0
2014-Sep-25 00:23N 34°21' E 132°26'0 0.0
2014-Sep-24 23:32N 34°21' E 132°26'4 3.7
2014-Sep-24 22:28N 34°19' E 132°22'0 0.0
2014-Sep-24 21:31N 34°19' E 132°22'0 0.0
2014-Sep-24 20:28N 34°19' E 132°22'0 0.0
2014-Sep-24 19:31N 34°19' E 132°22'5 5.5
2014-Sep-24 18:33N 34°14' E 132°21'19 9.4
2014-Sep-24 16:32N 34°06' E 132°41'117 9.6
2014-Sep-24 04:21N 34°37' E 134°57'911.2
2014-Sep-24 03:33N 34°36' E 135°08'6 5.9
2014-Sep-24 02:31N 34°40' E 135°14'3 3.3
2014-Sep-24 01:32N 34°41' E 135°17'2 1.9
2014-Sep-24 00:33N 34°40' E 135°15'1 0.9
2014-Sep-23 23:24N 34°39' E 135°15'1 0.8
2014-Sep-23 22:33N 34°40' E 135°14'0 0.0
2014-Sep-23 21:33N 34°40' E 135°14'2 2.4
2014-Sep-23 20:33N 34°38' E 135°16'2 1.6
2014-Sep-23 19:28N 34°37' E 135°15'0 0.0
2014-Sep-23 18:34N 34°37' E 135°15'1110.8
2014-Sep-23 17:33N 34°37' E 135°02'223 6.0
2014-Sep-22 04:33N 32°07' E 131°44'  

Dump ship's entire track history